Time;durP1;ratioP1;P1;durP2;ratioP2;P2;SDS_P1;SDS_P2;PMS_P1;PMS_P2;Temp;Humidity;BMP_temperature;BMP_pressure;BME280_temperature;BME280_humidity;BME280_pressure;Samples;Min_cycle;Max_cycle;Signal;HPM_P1;HPM_P2
2022/12/20 00:03:01;;;;;;;10.17;4.60;;;13.40;90.90;;;;;;5193287;27;20258;-96
2022/12/20 00:06:18;;;;;;;7.90;4.20;;;13.40;91.10;;;;;;5191192;27;20210;-96
2022/12/20 00:12:40;;;;;;;6.90;3.70;;;13.40;91.20;;;;;;5241071;22;20238;-95
2022/12/20 00:15:40;;;;;;;6.87;3.50;;;13.40;91.20;;;;;;5077053;28;20206;-96
2022/12/20 00:18:30;;;;;;;4.83;2.67;;;13.40;91.20;;;;;;5087540;28;20203;-94
2022/12/20 00:24:14;;;;;;;5.10;3.33;;;13.40;91.30;;;;;;5137952;28;20208;-96
2022/12/20 00:36:46;;;;;;;8.80;4.03;;;13.50;91.60;;;;;;5115286;28;20224;-95
2022/12/20 00:40:03;;;;;;;14.00;5.40;;;13.50;91.70;;;;;;5128378;28;20211;-96
2022/12/20 01:26:13;;;;;;;9.60;4.00;;;13.80;91.50;;;;;;5075394;28;20270;-94
2022/12/20 01:41:49;;;;;;;9.27;4.23;;;13.80;91.30;;;;;;5358230;22;20231;-96
2022/12/20 01:58:19;;;;;;;11.07;4.60;;;13.80;91.20;;;;;;5074644;28;20230;-95
2022/12/20 02:01:12;;;;;;;10.57;4.47;;;13.90;91.20;;;;;;5117211;22;20217;-96
2022/12/20 02:06:50;;;;;;;12.00;4.07;;;13.90;91.50;;;;;;5136421;28;20198;-96
2022/12/20 02:09:31;;;;;;;7.67;3.77;;;13.90;91.20;;;;;;5136791;28;20257;-96
2022/12/20 02:25:24;;;;;;;7.20;3.73;;;13.90;91.60;;;;;;5037755;28;20199;-95
2022/12/20 02:31:27;;;;;;;8.43;4.00;;;14.00;91.50;;;;;;5044097;28;20203;-95
2022/12/20 02:34:14;;;;;;;9.03;4.03;;;14.00;91.40;;;;;;5030670;28;20220;-95
2022/12/20 02:37:03;;;;;;;12.10;4.87;;;13.90;91.30;;;;;;5030123;28;20771;-95
2022/12/20 02:40:08;;;;;;;7.67;4.30;;;13.90;91.20;;;;;;5040177;28;20268;-95
2022/12/20 02:45:55;;;;;;;6.73;3.50;;;14.00;91.20;;;;;;5042358;28;20203;-95
2022/12/20 02:48:36;;;;;;;7.40;3.80;;;14.00;91.50;;;;;;5033698;28;20224;-95
2022/12/20 02:51:15;;;;;;;9.97;4.83;;;13.90;91.60;;;;;;5033496;28;20647;-95
2022/12/20 02:53:44;;;;;;;9.97;4.60;;;13.90;91.70;;;;;;5042569;28;20718;-96
2022/12/20 02:56:21;;;;;;;9.53;4.43;;;13.90;91.90;;;;;;5041868;28;20700;-95
2022/12/20 03:02:18;;;;;;;9.77;5.07;;;13.90;92.10;;;;;;5049017;28;20196;-95
2022/12/20 03:10:57;;;;;;;7.00;4.30;;;13.80;92.00;;;;;;5048130;28;20234;-96
2022/12/20 03:13:41;;;;;;;11.07;4.57;;;13.70;91.90;;;;;;5049264;28;20619;-96
2022/12/20 03:16:20;;;;;;;5.80;3.47;;;13.70;92.20;;;;;;5029362;28;20198;-95
2022/12/20 03:19:21;;;;;;;6.10;3.80;;;13.70;92.20;;;;;;5032983;28;20266;-95
2022/12/20 03:34:48;;;;;;;9.47;4.57;;;13.70;91.90;;;;;;5049410;28;20217;-96
2022/12/20 03:38:03;;;;;;;8.63;4.17;;;13.70;91.90;;;;;;5032406;28;20234;-96
2022/12/20 04:11:32;;;;;;;10.03;4.27;;;13.90;91.00;;;;;;5139411;22;20245;-96
2022/12/20 04:24:48;;;;;;;14.47;5.37;;;14.00;90.30;;;;;;5191597;22;20229;-96
2022/12/20 04:31:15;;;;;;;7.57;3.97;;;14.00;90.00;;;;;;5050850;28;20210;-96
2022/12/20 04:37:00;;;;;;;7.93;3.83;;;14.00;89.70;;;;;;5075111;28;20781;-96
2022/12/20 04:40:01;;;;;;;10.73;4.73;;;14.00;89.90;;;;;;5072458;28;20192;-95
2022/12/20 04:42:51;;;;;;;9.57;4.63;;;14.10;90.00;;;;;;5073668;28;20229;-96
2022/12/20 04:45:37;;;;;;;7.33;3.47;;;14.10;89.70;;;;;;5062219;28;20208;-94
2022/12/20 04:54:58;;;;;;;7.97;4.20;;;14.10;89.50;;;;;;5010264;28;20292;-96
2022/12/20 05:06:39;;;;;;;7.67;3.97;;;14.10;89.50;;;;;;5093264;28;20237;-93
2022/12/20 05:15:52;;;;;;;8.47;3.90;;;14.20;89.60;;;;;;5092051;28;20194;-95
2022/12/20 05:27:00;;;;;;;9.10;3.80;;;14.20;89.50;;;;;;5072006;28;20259;-96
2022/12/20 05:32:47;;;;;;;7.23;3.43;;;14.30;88.70;;;;;;5092353;28;20210;-96
2022/12/20 05:35:37;;;;;;;9.07;3.93;;;14.30;89.10;;;;;;5090035;28;20205;-96
2022/12/20 05:44:27;;;;;;;6.70;3.60;;;14.40;88.40;;;;;;5070628;28;20209;-96
2022/12/20 05:47:40;;;;;;;6.53;3.53;;;14.40;88.40;;;;;;5079976;28;20210;-96
2022/12/20 06:06:00;;;;;;;9.50;4.30;;;14.60;86.90;;;;;;5059728;28;20204;-96
2022/12/20 06:12:00;;;;;;;7.00;3.23;;;14.60;87.20;;;;;;5059524;28;20191;-96
2022/12/20 06:17:50;;;;;;;9.80;3.73;;;14.60;86.80;;;;;;5068033;28;20231;-96
2022/12/20 06:20:54;;;;;;;11.83;4.07;;;14.70;87.30;;;;;;5059687;28;20210;-96
2022/12/20 06:34:17;;;;;;;8.87;4.07;;;14.60;87.60;;;;;;5073744;28;20207;-96
2022/12/20 06:40:22;;;;;;;7.37;3.10;;;14.60;87.80;;;;;;5052157;28;20223;-96
2022/12/20 06:46:01;;;;;;;8.20;3.77;;;14.50;87.60;;;;;;5057117;28;20215;-96
2022/12/20 06:48:40;;;;;;;6.73;3.57;;;14.50;87.50;;;;;;5049862;28;20219;-96
2022/12/20 06:51:17;;;;;;;11.23;3.30;;;14.50;87.70;;;;;;5070274;28;20221;-96
2022/12/20 06:58:00;;;;;;;6.57;2.93;;;14.40;87.90;;;;;;5069740;28;20258;-96
2022/12/20 07:16:58;;;;;;;9.33;4.23;;;14.40;90.10;;;;;;5021748;28;20239;-93
2022/12/20 07:19:26;;;;;;;7.53;3.77;;;14.40;90.20;;;;;;5036239;28;20207;-92
2022/12/20 07:21:59;;;;;;;7.07;3.40;;;14.30;90.40;;;;;;5036585;28;20286;-92
2022/12/20 07:24:34;;;;;;;10.43;4.40;;;14.30;90.50;;;;;;5040648;28;20207;-96
2022/12/20 07:27:13;;;;;;;7.53;3.63;;;14.30;90.80;;;;;;5042202;28;20268;-96
2022/12/20 07:39:41;;;;;;;10.77;3.93;;;14.20;91.40;;;;;;4990697;28;20223;-93
2022/12/20 07:42:17;;;;;;;9.67;4.03;;;14.10;91.40;;;;;;4992748;28;20201;-94
2022/12/20 07:45:05;;;;;;;7.27;3.27;;;14.00;91.60;;;;;;4980930;28;20200;-95
2022/12/20 07:47:43;;;;;;;6.80;3.20;;;14.10;92.00;;;;;;5018056;28;20207;-94
2022/12/20 07:50:18;;;;;;;11.47;4.13;;;14.00;91.90;;;;;;5022992;28;20652;-94
2022/12/20 07:52:52;;;;;;;8.50;3.77;;;14.00;92.00;;;;;;5032861;28;20252;-94
2022/12/20 07:55:30;;;;;;;6.00;3.27;;;14.00;92.00;;;;;;5041182;28;20603;-96
2022/12/20 07:58:10;;;;;;;10.83;3.93;;;13.90;92.10;;;;;;5034505;28;20230;-95
2022/12/20 08:00:54;;;;;;;10.87;4.67;;;13.90;92.30;;;;;;5043184;28;20213;-94
2022/12/20 08:03:26;;;;;;;6.50;3.50;;;13.90;92.30;;;;;;5056795;28;20215;-96
2022/12/20 08:05:56;;;;;;;15.07;4.73;;;13.90;92.30;;;;;;5046653;28;20204;-96
2022/12/20 08:08:25;;;;;;;8.00;3.63;;;13.90;92.20;;;;;;5053230;28;20206;-94
2022/12/20 08:10:58;;;;;;;13.03;4.63;;;13.90;92.30;;;;;;5042180;28;20191;-93
2022/12/20 08:13:26;;;;;;;9.70;4.17;;;13.80;92.30;;;;;;5055761;28;20198;-94
2022/12/20 08:15:53;;;;;;;9.37;4.33;;;13.80;92.30;;;;;;5057651;28;20207;-95
2022/12/20 08:18:22;;;;;;;12.73;4.37;;;13.90;92.30;;;;;;5058876;28;20246;-95
2022/12/20 08:20:57;;;;;;;13.67;5.17;;;13.90;92.30;;;;;;5054276;28;20239;-95
2022/12/20 08:23:33;;;;;;;14.73;4.40;;;13.90;92.20;;;;;;5037894;28;20187;-94
2022/12/20 08:26:12;;;;;;;5.07;2.93;;;13.90;92.30;;;;;;5054860;28;20190;-94
2022/12/20 08:29:02;;;;;;;9.80;3.60;;;13.90;92.30;;;;;;5053664;28;20190;-95
2022/12/20 08:31:36;;;;;;;9.23;3.47;;;13.90;92.50;;;;;;5049255;28;20669;-96
2022/12/20 08:34:23;;;;;;;7.63;3.30;;;13.90;92.40;;;;;;5053994;28;20207;-93
2022/12/20 08:36:58;;;;;;;13.43;4.60;;;13.90;92.40;;;;;;5040977;28;20725;-96
2022/12/20 08:39:31;;;;;;;7.07;3.17;;;13.90;92.40;;;;;;5039317;28;20211;-94
2022/12/20 08:42:21;;;;;;;7.23;3.10;;;13.90;92.40;;;;;;5038881;28;20206;-95
2022/12/20 08:45:03;;;;;;;6.30;3.10;;;13.90;92.50;;;;;;5035988;28;20233;-94
2022/12/20 08:50:58;;;;;;;6.70;3.30;;;14.00;92.40;;;;;;5035193;28;20590;-96
2022/12/20 08:54:18;;;;;;;10.67;3.77;;;13.90;92.30;;;;;;5038266;28;20229;-96
2022/12/20 08:57:03;;;;;;;10.03;3.57;;;14.00;92.40;;;;;;4964263;28;20206;-95
2022/12/20 08:59:55;;;;;;;9.57;3.80;;;14.00;92.20;;;;;;5037491;28;20643;-94
2022/12/20 09:02:36;;;;;;;9.93;3.87;;;13.90;92.20;;;;;;5038286;28;20260;-96
2022/12/20 09:05:11;;;;;;;6.83;3.13;;;14.00;92.20;;;;;;5038585;28;20230;-96
2022/12/20 09:07:49;;;;;;;6.50;3.13;;;14.00;92.30;;;;;;5038128;28;20301;-96
2022/12/20 09:10:38;;;;;;;9.67;3.83;;;14.00;92.30;;;;;;5038002;28;20235;-95
2022/12/20 09:13:27;;;;;;;5.37;3.10;;;14.00;92.30;;;;;;5019078;28;20243;-94
2022/12/20 09:16:09;;;;;;;5.67;3.13;;;14.00;92.30;;;;;;5010040;28;20219;-94
2022/12/20 09:18:45;;;;;;;10.60;4.27;;;14.00;92.30;;;;;;5031599;28;20330;-95
2022/12/20 09:21:33;;;;;;;6.40;3.10;;;14.00;92.30;;;;;;5039365;28;20247;-95
2022/12/20 09:24:02;;;;;;;5.77;2.93;;;14.00;92.40;;;;;;5041632;28;20310;-95
2022/12/20 09:26:44;;;;;;;8.83;3.73;;;14.10;92.40;;;;;;5039539;28;20759;-94
2022/12/20 09:29:16;;;;;;;7.57;3.40;;;14.10;92.60;;;;;;5039875;28;20201;-94
2022/12/20 09:31:50;;;;;;;11.93;4.40;;;14.10;92.60;;;;;;5047047;28;20209;-93
2022/12/20 09:34:19;;;;;;;6.20;2.97;;;14.10;92.60;;;;;;5052725;28;20202;-92
2022/12/20 09:36:49;;;;;;;10.50;3.90;;;14.00;92.70;;;;;;5054744;28;20203;-93
2022/12/20 09:39:19;;;;;;;10.33;4.40;;;14.10;92.80;;;;;;5049731;28;20222;-94
2022/12/20 09:42:01;;;;;;;9.47;3.97;;;14.00;92.90;;;;;;5047903;28;20790;-94
2022/12/20 09:44:35;;;;;;;9.20;4.10;;;14.00;93.10;;;;;;5046827;28;20199;-95
2022/12/20 09:47:18;;;;;;;9.30;4.23;;;14.00;93.10;;;;;;5043386;28;20219;-94
2022/12/20 09:49:52;;;;;;;7.67;3.43;;;14.00;93.10;;;;;;5030370;28;20229;-94
2022/12/20 09:52:32;;;;;;;8.90;4.10;;;14.00;93.40;;;;;;5029625;28;20656;-94
2022/12/20 09:55:17;;;;;;;7.20;3.17;;;14.00;93.40;;;;;;5024466;28;20210;-93
2022/12/20 09:58:05;;;;;;;6.93;3.37;;;14.00;93.50;;;;;;5035980;28;20227;-93
2022/12/20 10:04:20;;;;;;;7.07;3.07;;;14.00;93.60;;;;;;4945352;29;21116;-92
2022/12/20 10:07:15;;;;;;;8.37;3.67;;;14.00;93.60;;;;;;5002775;28;20303;-94
2022/12/20 10:10:20;;;;;;;8.97;4.07;;;14.00;93.90;;;;;;5016275;28;20326;-94
2022/12/20 10:13:00;;;;;;;16.20;5.80;;;14.00;94.00;;;;;;5031387;28;20217;-92
2022/12/20 10:15:34;;;;;;;6.50;3.07;;;14.00;94.00;;;;;;5017577;28;20219;-94
2022/12/20 10:18:23;;;;;;;8.07;3.27;;;14.00;93.80;;;;;;5029453;28;20254;-94
2022/12/20 10:21:02;;;;;;;16.70;4.67;;;14.00;93.90;;;;;;5027560;28;20200;-93
2022/12/20 10:23:40;;;;;;;8.83;3.57;;;14.00;93.90;;;;;;5029619;28;20206;-93
2022/12/20 10:26:12;;;;;;;15.10;5.40;;;14.00;94.00;;;;;;5025515;28;20200;-94
2022/12/20 10:28:41;;;;;;;8.23;3.60;;;14.10;94.00;;;;;;5034481;28;20218;-94
2022/12/20 10:31:16;;;;;;;7.13;3.73;;;14.00;94.10;;;;;;5040457;28;20217;-94
2022/12/20 10:33:47;;;;;;;8.87;3.63;;;14.00;94.40;;;;;;5035292;28;20647;-94
2022/12/20 10:36:24;;;;;;;10.50;3.77;;;14.00;94.10;;;;;;5034719;28;20204;-93
2022/12/20 10:38:55;;;;;;;9.70;3.67;;;14.00;94.20;;;;;;5032785;28;20240;-95
2022/12/20 10:41:24;;;;;;;14.53;4.70;;;14.00;94.30;;;;;;5021509;28;20203;-93
2022/12/20 10:43:57;;;;;;;15.73;5.07;;;14.00;94.20;;;;;;5033808;28;20199;-94
2022/12/20 10:46:37;;;;;;;10.00;4.40;;;14.00;94.30;;;;;;5021489;28;20294;-95
2022/12/20 10:49:29;;;;;;;34.90;7.70;;;14.00;94.30;;;;;;5030374;28;20713;-94
2022/12/20 10:52:13;;;;;;;43.20;7.80;;;14.00;94.50;;;;;;5032995;28;20709;-94
2022/12/20 10:54:41;;;;;;;6.00;3.23;;;14.00;94.50;;;;;;5016719;28;20665;-95
2022/12/20 10:57:19;;;;;;;14.83;5.30;;;14.00;94.40;;;;;;5014036;28;20208;-95
2022/12/20 10:59:51;;;;;;;24.20;6.27;;;14.00;94.60;;;;;;5013292;28;20294;-95
2022/12/20 11:02:28;;;;;;;16.07;5.73;;;14.00;94.50;;;;;;5030241;28;20200;-95
2022/12/20 11:05:24;;;;;;;13.67;4.40;;;14.00;94.70;;;;;;5031343;28;20247;-93
2022/12/20 11:08:13;;;;;;;9.57;4.43;;;14.00;94.60;;;;;;5030921;28;20929;-95
2022/12/20 11:10:44;;;;;;;8.17;3.50;;;14.00;94.60;;;;;;5028969;28;20200;-94
2022/12/20 11:13:22;;;;;;;11.90;4.63;;;14.00;94.50;;;;;;5034493;28;20203;-95
2022/12/20 11:15:54;;;;;;;7.97;4.03;;;14.00;94.60;;;;;;5033721;28;20201;-95
2022/12/20 11:18:30;;;;;;;10.37;4.07;;;14.10;94.40;;;;;;5032184;28;20228;-94
2022/12/20 11:21:09;;;;;;;10.77;4.53;;;14.00;94.40;;;;;;5029749;28;21332;-92
2022/12/20 11:23:43;;;;;;;16.80;5.40;;;14.00;94.50;;;;;;5028374;28;20214;-94
2022/12/20 11:26:31;;;;;;;8.83;4.03;;;14.00;94.60;;;;;;5032189;28;20265;-95
2022/12/20 11:29:12;;;;;;;8.93;4.50;;;14.00;94.70;;;;;;5035202;28;20204;-96
2022/12/20 11:31:53;;;;;;;8.83;3.90;;;14.00;94.80;;;;;;5018796;28;20209;-95
2022/12/20 11:34:34;;;;;;;7.80;3.53;;;14.00;94.60;;;;;;5014968;28;21083;-95
2022/12/20 11:37:18;;;;;;;8.27;3.90;;;14.00;94.60;;;;;;5013681;28;20211;-96
2022/12/20 11:40:04;;;;;;;11.10;4.27;;;14.00;94.80;;;;;;5024675;28;20361;-96
2022/12/20 11:42:51;;;;;;;6.43;3.60;;;14.00;94.80;;;;;;5033006;28;20219;-95
2022/12/20 11:45:30;;;;;;;13.63;5.00;;;14.00;94.90;;;;;;5033404;28;20200;-94
2022/12/20 11:48:26;;;;;;;12.67;4.33;;;13.90;94.90;;;;;;5028410;28;20735;-94
2022/12/20 11:51:09;;;;;;;10.50;4.40;;;14.00;95.50;;;;;;5031857;28;20200;-94
2022/12/20 11:53:45;;;;;;;8.07;4.87;;;14.00;95.00;;;;;;5021099;28;20214;-95
2022/12/20 11:56:20;;;;;;;11.47;5.13;;;14.00;94.80;;;;;;5025326;28;20215;-94
2022/12/20 11:58:56;;;;;;;14.70;5.40;;;13.90;95.00;;;;;;5016295;28;20240;-95
2022/12/20 12:01:34;;;;;;;18.80;6.27;;;13.90;95.00;;;;;;5027024;28;20203;-95
2022/12/20 12:04:11;;;;;;;7.40;3.50;;;13.90;95.20;;;;;;5030328;28;20211;-95
2022/12/20 12:06:45;;;;;;;13.40;5.43;;;13.90;95.20;;;;;;5030826;28;20199;-94
2022/12/20 12:09:18;;;;;;;11.30;4.50;;;13.90;95.20;;;;;;5026767;28;20201;-95
2022/12/20 12:11:52;;;;;;;7.73;3.90;;;13.90;95.00;;;;;;5033394;28;20207;-96
2022/12/20 12:14:35;;;;;;;10.07;4.77;;;13.90;95.20;;;;;;5033669;28;20202;-96
2022/12/20 12:17:13;;;;;;;18.70;5.20;;;13.90;95.30;;;;;;5024698;28;20613;-96
2022/12/20 12:19:46;;;;;;;14.47;5.23;;;13.90;95.30;;;;;;5032306;28;20223;-94
2022/12/20 12:22:20;;;;;;;19.23;6.27;;;13.90;95.30;;;;;;5033003;28;20235;-95
2022/12/20 12:24:59;;;;;;;20.67;5.73;;;13.90;95.40;;;;;;5030644;28;20201;-95
2022/12/20 12:27:38;;;;;;;10.43;4.13;;;13.90;95.40;;;;;;5037776;28;20293;-95
2022/12/20 12:30:12;;;;;;;9.67;4.70;;;13.90;95.40;;;;;;5037737;28;20206;-95
2022/12/20 12:32:53;;;;;;;13.93;4.60;;;13.90;95.40;;;;;;5040029;28;20275;-96
2022/12/20 12:35:59;;;;;;;16.23;5.50;;;13.90;95.40;;;;;;5042818;28;20268;-96
2022/12/20 12:38:47;;;;;;;11.43;4.47;;;13.90;95.40;;;;;;5027441;28;20212;-96
2022/12/20 12:41:39;;;;;;;26.67;7.50;;;13.90;95.40;;;;;;5019528;28;20196;-95
2022/12/20 12:44:31;;;;;;;18.27;6.60;;;13.90;95.50;;;;;;5021481;28;20202;-95
2022/12/20 12:47:05;;;;;;;21.03;5.57;;;14.00;95.50;;;;;;5038265;28;20260;-95
2022/12/20 12:49:39;;;;;;;12.03;4.87;;;13.90;95.40;;;;;;5040324;28;20226;-96
2022/12/20 12:52:41;;;;;;;10.53;4.60;;;13.90;95.40;;;;;;5038236;28;20209;-96
2022/12/20 12:55:42;;;;;;;9.17;4.33;;;13.90;95.60;;;;;;5027111;28;20214;-95
2022/12/20 13:01:55;;;;;;;11.83;4.43;;;13.90;95.80;;;;;;5037435;28;20214;-96
2022/12/20 13:04:30;;;;;;;6.50;4.00;;;13.90;95.80;;;;;;5033389;28;20211;-96
2022/12/20 13:07:24;;;;;;;9.50;4.20;;;13.90;95.70;;;;;;5021607;28;20218;-95
2022/12/20 13:09:52;;;;;;;10.90;4.63;;;13.90;96.10;;;;;;5026971;28;20242;-95
2022/12/20 13:13:00;;;;;;;9.87;4.67;;;13.90;95.50;;;;;;5038976;28;20667;-96
2022/12/20 13:16:05;;;;;;;12.30;4.97;;;13.90;95.90;;;;;;5038238;28;20342;-95
2022/12/20 13:18:38;;;;;;;9.80;4.33;;;13.90;95.90;;;;;;5036075;28;20266;-96
2022/12/20 13:21:49;;;;;;;11.07;5.00;;;13.90;95.80;;;;;;5036204;28;20207;-95
2022/12/20 13:24:49;;;;;;;8.07;3.43;;;13.90;95.90;;;;;;5015839;28;20213;-95
2022/12/20 13:27:30;;;;;;;8.30;4.10;;;14.00;95.70;;;;;;5034589;28;20661;-95
2022/12/20 13:30:27;;;;;;;8.20;4.27;;;13.90;96.10;;;;;;5033263;28;20214;-95
2022/12/20 13:33:25;;;;;;;5.87;3.37;;;13.90;95.90;;;;;;5033689;28;20294;-95
2022/12/20 13:36:32;;;;;;;20.83;5.20;;;13.90;95.80;;;;;;5034219;28;20215;-95
2022/12/20 13:39:22;;;;;;;12.03;3.83;;;13.90;95.80;;;;;;5035503;28;20266;-95
2022/12/20 13:42:10;;;;;;;8.40;3.90;;;13.90;95.70;;;;;;5034708;28;20207;-95
2022/12/20 13:44:43;;;;;;;6.40;3.63;;;13.90;95.60;;;;;;5035612;28;20212;-95
2022/12/20 13:47:37;;;;;;;6.50;3.90;;;13.90;95.70;;;;;;5037254;28;20200;-95
2022/12/20 13:50:38;;;;;;;12.70;5.07;;;13.90;95.90;;;;;;5035562;28;20237;-95
2022/12/20 13:53:17;;;;;;;9.17;4.13;;;13.90;95.90;;;;;;5046641;28;20209;-95
2022/12/20 13:55:47;;;;;;;11.23;5.03;;;13.90;95.80;;;;;;5044669;28;20211;-94
2022/12/20 13:58:28;;;;;;;6.93;3.63;;;13.90;95.80;;;;;;5045065;28;20209;-95
2022/12/20 14:01:05;;;;;;;7.00;3.67;;;13.90;95.90;;;;;;5043299;28;20235;-95
2022/12/20 14:03:33;;;;;;;9.47;4.40;;;13.90;95.90;;;;;;5023021;28;20218;-95
2022/12/20 14:06:02;;;;;;;5.33;3.30;;;13.90;95.80;;;;;;5047152;28;20230;-94
2022/12/20 14:08:43;;;;;;;8.07;3.90;;;13.90;95.90;;;;;;5043054;28;20208;-95
2022/12/20 14:11:19;;;;;;;6.70;3.70;;;13.90;96.00;;;;;;5039622;28;20199;-95
2022/12/20 14:13:52;;;;;;;13.43;5.93;;;13.90;95.90;;;;;;5038052;28;20231;-95
2022/12/20 14:16:22;;;;;;;5.43;3.10;;;13.90;95.90;;;;;;5034607;28;20230;-95
2022/12/20 14:18:51;;;;;;;11.20;4.87;;;13.90;95.90;;;;;;5035494;28;20249;-95
2022/12/20 14:21:23;;;;;;;7.40;4.03;;;13.90;95.90;;;;;;5041982;28;20193;-95
2022/12/20 14:23:57;;;;;;;8.47;4.33;;;13.90;95.90;;;;;;5040749;28;20203;-96
2022/12/20 14:26:29;;;;;;;6.80;3.73;;;13.90;95.80;;;;;;5034106;28;20202;-95
2022/12/20 14:29:05;;;;;;;7.67;4.13;;;13.90;95.80;;;;;;5033544;28;20195;-96
2022/12/20 14:31:40;;;;;;;10.20;5.03;;;13.90;96.00;;;;;;5033465;28;20208;-95
2022/12/20 14:34:14;;;;;;;8.50;4.50;;;13.90;96.00;;;;;;5032924;28;20204;-95
2022/12/20 14:36:47;;;;;;;8.27;4.20;;;13.90;96.00;;;;;;5033342;28;20257;-95
2022/12/20 14:39:34;;;;;;;10.33;4.93;;;13.90;96.00;;;;;;5032220;28;20223;-95
2022/12/20 14:42:03;;;;;;;7.20;3.70;;;13.90;96.10;;;;;;5018873;28;20207;-95
2022/12/20 14:44:33;;;;;;;7.93;3.67;;;13.90;95.90;;;;;;5031504;28;20215;-94
2022/12/20 14:47:15;;;;;;;7.63;4.20;;;13.90;96.00;;;;;;5031671;28;20659;-95
2022/12/20 14:49:52;;;;;;;9.10;4.07;;;13.90;96.00;;;;;;5016940;28;20231;-95
2022/12/20 14:52:26;;;;;;;8.57;4.70;;;13.90;96.10;;;;;;5011226;28;20209;-95
2022/12/20 14:55:01;;;;;;;7.30;3.90;;;13.90;96.10;;;;;;5031714;28;20199;-95
2022/12/20 14:57:39;;;;;;;8.13;4.17;;;13.90;96.10;;;;;;5031216;28;20289;-95
2022/12/20 15:00:15;;;;;;;7.07;3.80;;;13.90;96.00;;;;;;5030484;28;20744;-95
2022/12/20 15:03:00;;;;;;;10.43;5.00;;;13.90;96.10;;;;;;5031456;28;20210;-95
2022/12/20 15:05:51;;;;;;;9.23;4.70;;;13.90;96.10;;;;;;5029417;28;20200;-94
2022/12/20 15:08:25;;;;;;;10.30;4.57;;;13.90;96.10;;;;;;5033350;28;20207;-96
2022/12/20 15:11:18;;;;;;;9.23;4.70;;;14.00;96.10;;;;;;5036785;28;20207;-95
2022/12/20 15:13:48;;;;;;;14.67;6.47;;;13.90;96.10;;;;;;5036984;28;20267;-94
2022/12/20 15:16:18;;;;;;;5.93;3.80;;;13.90;95.90;;;;;;5033874;28;20206;-96
2022/12/20 15:18:49;;;;;;;10.33;4.90;;;14.00;96.00;;;;;;5033726;28;20663;-95
2022/12/20 15:21:23;;;;;;;8.07;4.83;;;13.90;96.00;;;;;;5031523;28;20688;-94
2022/12/20 15:23:55;;;;;;;12.30;5.53;;;13.90;95.90;;;;;;5032423;28;20269;-94
2022/12/20 15:26:30;;;;;;;8.87;5.13;;;13.90;95.90;;;;;;5034398;28;20658;-95
2022/12/20 15:29:01;;;;;;;8.87;5.00;;;13.90;95.90;;;;;;5033780;28;20209;-94
2022/12/20 15:31:35;;;;;;;11.27;5.73;;;14.00;95.90;;;;;;5029137;28;20746;-95
2022/12/20 15:34:12;;;;;;;7.20;4.77;;;13.90;95.90;;;;;;5032234;28;20672;-95
2022/12/20 15:36:45;;;;;;;12.40;5.47;;;13.90;95.80;;;;;;5037134;28;20210;-96
2022/12/20 15:39:19;;;;;;;9.83;5.27;;;13.90;95.70;;;;;;5031927;28;20551;-96
2022/12/20 15:41:50;;;;;;;5.00;4.27;;;13.90;95.70;;;;;;5032478;28;20211;-95
2022/12/20 15:44:22;;;;;;;8.27;4.93;;;14.00;95.80;;;;;;5032421;28;20211;-95
2022/12/20 15:46:51;;;;;;;8.07;4.60;;;13.90;95.70;;;;;;5023070;28;20250;-94
2022/12/20 15:49:30;;;;;;;9.60;5.10;;;13.90;95.80;;;;;;5023394;28;20586;-95
2022/12/20 15:55:34;;;;;;;12.20;5.57;;;13.90;96.00;;;;;;4966799;28;20218;-95
2022/12/20 15:58:19;;;;;;;11.70;6.33;;;13.90;95.80;;;;;;5046689;28;20214;-95
2022/12/20 16:00:55;;;;;;;8.47;5.00;;;13.90;96.00;;;;;;5038906;28;20230;-96
2022/12/20 16:07:16;;;;;;;14.70;7.03;;;13.90;96.10;;;;;;4849389;29;20217;-95
2022/12/20 16:09:50;;;;;;;9.33;5.53;;;13.90;96.00;;;;;;4869942;29;20207;-94
2022/12/20 16:12:21;;;;;;;12.50;5.97;;;13.90;95.90;;;;;;4951114;28;20312;-95
2022/12/20 16:14:50;;;;;;;6.47;4.90;;;13.90;95.90;;;;;;5047469;28;20235;-94
2022/12/20 16:17:17;;;;;;;10.77;5.87;;;13.80;95.90;;;;;;5018192;28;20221;-94
2022/12/20 16:19:48;;;;;;;10.27;5.93;;;13.90;95.90;;;;;;5027251;28;20272;-94
2022/12/20 16:22:20;;;;;;;7.33;5.43;;;13.90;96.00;;;;;;5032070;28;20204;-95
2022/12/20 16:24:49;;;;;;;9.70;6.00;;;13.90;96.10;;;;;;5032547;28;20206;-94
2022/12/20 16:27:17;;;;;;;7.53;5.50;;;13.90;96.00;;;;;;5026674;28;20547;-94
2022/12/20 16:29:46;;;;;;;15.70;7.40;;;13.90;96.00;;;;;;5028452;28;20202;-95
2022/12/20 16:32:18;;;;;;;9.30;6.47;;;13.90;96.00;;;;;;5043900;28;20207;-95
2022/12/20 16:34:50;;;;;;;11.67;6.47;;;13.90;96.00;;;;;;5038607;28;20240;-95
2022/12/20 16:37:18;;;;;;;12.40;7.30;;;13.90;96.00;;;;;;5036592;28;20200;-94
2022/12/20 16:39:50;;;;;;;14.40;7.97;;;13.90;96.00;;;;;;5027353;28;20232;-95
2022/12/20 16:42:20;;;;;;;11.50;7.50;;;13.90;96.00;;;;;;5032927;28;20204;-95
2022/12/20 16:44:55;;;;;;;11.23;7.87;;;13.90;96.00;;;;;;5039867;28;20265;-95
2022/12/20 16:47:31;;;;;;;24.00;13.43;;;13.90;96.20;;;;;;5037957;28;20206;-94
2022/12/20 16:50:01;;;;;;;28.93;17.10;;;13.90;96.00;;;;;;5036873;28;20214;-95
2022/12/20 16:52:29;;;;;;;12.73;8.83;;;13.90;95.90;;;;;;5032247;28;20216;-95
2022/12/20 16:55:07;;;;;;;13.20;8.73;;;13.90;95.80;;;;;;5038245;28;20259;-95
2022/12/20 16:57:37;;;;;;;12.10;9.00;;;13.90;96.00;;;;;;5038290;28;20204;-95
2022/12/20 17:00:05;;;;;;;19.57;12.53;;;13.90;95.90;;;;;;5035273;28;20251;-95
2022/12/20 17:02:36;;;;;;;10.80;9.00;;;13.90;95.80;;;;;;5037248;28;20698;-95
2022/12/20 17:05:06;;;;;;;11.97;9.07;;;13.90;95.80;;;;;;5036121;28;20207;-95
2022/12/20 17:07:36;;;;;;;14.70;9.47;;;13.90;95.90;;;;;;5039801;28;20213;-95
2022/12/20 17:10:10;;;;;;;12.20;9.70;;;13.90;95.70;;;;;;5038146;28;20315;-95
2022/12/20 17:12:46;;;;;;;14.07;9.50;;;13.90;95.90;;;;;;5038479;28;20747;-96
2022/12/20 17:15:19;;;;;;;12.73;9.23;;;13.90;95.90;;;;;;5037294;28;20227;-94
2022/12/20 17:17:49;;;;;;;14.77;9.90;;;13.90;95.80;;;;;;5029175;28;20207;-95
2022/12/20 17:20:18;;;;;;;12.30;9.27;;;13.90;95.80;;;;;;5033539;28;20334;-94
2022/12/20 17:22:53;;;;;;;19.83;11.07;;;13.90;95.80;;;;;;5034075;28;20207;-95
2022/12/20 17:25:30;;;;;;;15.00;10.17;;;14.00;95.90;;;;;;5034408;28;20222;-95
2022/12/20 17:27:57;;;;;;;18.23;10.90;;;13.90;95.80;;;;;;5020847;28;20832;-96
2022/12/20 17:30:33;;;;;;;19.90;11.50;;;13.90;95.80;;;;;;5038003;28;20215;-95
2022/12/20 17:33:04;;;;;;;16.63;10.93;;;14.00;95.90;;;;;;5031603;28;20215;-96
2022/12/20 17:35:35;;;;;;;12.73;10.10;;;14.00;95.80;;;;;;5035529;28;20190;-95
2022/12/20 17:38:05;;;;;;;13.90;9.83;;;14.00;95.80;;;;;;5053781;28;20199;-95
2022/12/20 17:40:37;;;;;;;11.93;9.50;;;14.00;95.70;;;;;;5056106;28;20278;-96
2022/12/20 17:43:15;;;;;;;19.40;11.43;;;14.00;95.70;;;;;;5055467;28;20192;-96
2022/12/20 17:45:46;;;;;;;16.67;10.97;;;14.00;95.80;;;;;;5055538;28;20226;-95
2022/12/20 17:48:33;;;;;;;12.97;10.00;;;14.00;95.70;;;;;;5045401;28;20210;-95
2022/12/20 17:51:17;;;;;;;13.97;10.50;;;14.00;95.70;;;;;;5044244;28;20633;-95
2022/12/20 17:53:55;;;;;;;10.13;8.90;;;14.00;95.50;;;;;;5035077;28;20222;-95
2022/12/20 17:56:27;;;;;;;12.87;8.97;;;14.00;95.60;;;;;;5038686;28;20203;-96
2022/12/20 17:58:56;;;;;;;11.77;8.90;;;14.00;95.50;;;;;;5045696;28;20212;-96
2022/12/20 18:01:29;;;;;;;11.53;9.33;;;14.00;95.50;;;;;;5040681;28;20289;-95
2022/12/20 18:04:05;;;;;;;15.63;10.30;;;14.00;95.50;;;;;;5030325;28;20194;-96
2022/12/20 18:06:36;;;;;;;12.57;8.73;;;14.00;95.50;;;;;;5043155;28;20199;-95
2022/12/20 18:09:12;;;;;;;9.47;8.07;;;13.90;95.40;;;;;;5053037;28;20279;-96
2022/12/20 18:11:43;;;;;;;12.37;8.73;;;13.90;95.40;;;;;;5048102;28;20212;-95
2022/12/20 18:17:02;;;;;;;18.30;9.70;;;13.90;95.40;;;;;;5046457;28;20205;-95
2022/12/20 18:19:32;;;;;;;14.33;9.23;;;13.90;95.40;;;;;;5030137;28;20211;-95
2022/12/20 18:22:14;;;;;;;11.70;8.70;;;13.90;95.30;;;;;;5032298;28;20229;-95
2022/12/20 18:25:07;;;;;;;15.77;8.93;;;13.90;95.40;;;;;;5038891;28;20215;-95
2022/12/20 18:27:40;;;;;;;13.80;9.07;;;13.90;95.40;;;;;;5038901;28;20202;-96
2022/12/20 18:30:10;;;;;;;13.67;9.40;;;13.90;95.30;;;;;;5038488;28;20197;-95
2022/12/20 18:32:43;;;;;;;13.47;9.10;;;13.90;95.30;;;;;;5046321;28;20207;-96
2022/12/20 18:35:41;;;;;;;13.07;9.07;;;13.90;95.20;;;;;;5039106;28;20242;-96
2022/12/20 18:38:37;;;;;;;13.63;10.17;;;13.90;95.30;;;;;;5030263;28;20227;-95
2022/12/20 18:41:15;;;;;;;13.10;9.60;;;13.90;95.30;;;;;;5012592;28;20230;-95
2022/12/20 18:43:46;;;;;;;18.50;10.87;;;13.90;95.40;;;;;;5026702;28;20210;-96
2022/12/20 18:46:17;;;;;;;15.10;10.00;;;13.90;95.30;;;;;;5035532;28;20196;-95
2022/12/20 18:48:47;;;;;;;12.30;9.87;;;13.90;95.20;;;;;;5037626;28;20230;-95
2022/12/20 18:51:19;;;;;;;17.17;10.77;;;13.90;95.20;;;;;;5035976;28;20208;-95
2022/12/20 18:53:53;;;;;;;15.23;10.13;;;13.90;95.20;;;;;;5030996;28;20204;-96